sensor_id;sensor_type;location;lat;lon;timestamp;P1;durP1;ratioP1;P2;durP2;ratioP2
80253;SDS011;69563;37.974;23.708;2023-07-31T00:00:30;4.30;;;2.90;;
80253;SDS011;69563;37.974;23.708;2023-07-31T00:02:56;8.18;;;3.10;;
80253;SDS011;69563;37.974;23.708;2023-07-31T00:05:21;5.82;;;3.00;;
80253;SDS011;69563;37.974;23.708;2023-07-31T00:07:47;4.78;;;3.00;;
80253;SDS011;69563;37.974;23.708;2023-07-31T00:10:13;5.55;;;2.92;;
80253;SDS011;69563;37.974;23.708;2023-07-31T00:12:39;5.07;;;2.80;;
80253;SDS011;69563;37.974;23.708;2023-07-31T00:15:07;7.72;;;3.13;;
80253;SDS011;69563;37.974;23.708;2023-07-31T00:17:33;6.18;;;3.15;;
80253;SDS011;69563;37.974;23.708;2023-07-31T00:19:59;6.13;;;2.72;;
80253;SDS011;69563;37.974;23.708;2023-07-31T00:22:25;5.97;;;3.00;;
80253;SDS011;69563;37.974;23.708;2023-07-31T00:24:51;5.95;;;2.92;;
80253;SDS011;69563;37.974;23.708;2023-07-31T00:27:16;4.40;;;2.65;;
80253;SDS011;69563;37.974;23.708;2023-07-31T00:29:42;5.25;;;3.00;;
80253;SDS011;69563;37.974;23.708;2023-07-31T00:32:08;5.45;;;3.13;;
80253;SDS011;69563;37.974;23.708;2023-07-31T00:34:33;4.45;;;2.70;;
80253;SDS011;69563;37.974;23.708;2023-07-31T00:36:59;8.00;;;3.40;;
80253;SDS011;69563;37.974;23.708;2023-07-31T00:39:25;5.97;;;2.90;;
80253;SDS011;69563;37.974;23.708;2023-07-31T00:41:50;4.30;;;3.00;;
80253;SDS011;69563;37.974;23.708;2023-07-31T00:44:16;5.35;;;3.03;;
80253;SDS011;69563;37.974;23.708;2023-07-31T00:46:42;4.38;;;3.10;;
80253;SDS011;69563;37.974;23.708;2023-07-31T00:49:08;4.30;;;2.92;;
80253;SDS011;69563;37.974;23.708;2023-07-31T00:51:34;7.15;;;2.92;;
80253;SDS011;69563;37.974;23.708;2023-07-31T00:54:00;7.10;;;3.42;;
80253;SDS011;69563;37.974;23.708;2023-07-31T00:56:27;7.10;;;3.03;;
80253;SDS011;69563;37.974;23.708;2023-07-31T00:58:54;5.93;;;2.88;;
80253;SDS011;69563;37.974;23.708;2023-07-31T01:01:20;5.47;;;3.10;;
80253;SDS011;69563;37.974;23.708;2023-07-31T01:03:47;5.20;;;3.03;;
80253;SDS011;69563;37.974;23.708;2023-07-31T01:08:54;4.85;;;3.00;;
80253;SDS011;69563;37.974;23.708;2023-07-31T01:11:32;5.13;;;2.78;;
80253;SDS011;69563;37.974;23.708;2023-07-31T01:14:02;4.97;;;3.03;;
80253;SDS011;69563;37.974;23.708;2023-07-31T01:16:28;5.57;;;3.00;;
80253;SDS011;69563;37.974;23.708;2023-07-31T01:18:54;3.67;;;2.58;;
80253;SDS011;69563;37.974;23.708;2023-07-31T01:24:30;4.73;;;2.90;;
80253;SDS011;69563;37.974;23.708;2023-07-31T01:27:14;4.35;;;2.90;;
80253;SDS011;69563;37.974;23.708;2023-07-31T01:29:47;5.70;;;2.90;;
80253;SDS011;69563;37.974;23.708;2023-07-31T01:32:21;4.20;;;2.33;;
80253;SDS011;69563;37.974;23.708;2023-07-31T01:34:48;4.80;;;2.83;;
80253;SDS011;69563;37.974;23.708;2023-07-31T01:37:15;4.15;;;2.80;;
80253;SDS011;69563;37.974;23.708;2023-07-31T01:39:41;6.70;;;2.80;;
80253;SDS011;69563;37.974;23.708;2023-07-31T01:42:07;5.15;;;2.42;;
80253;SDS011;69563;37.974;23.708;2023-07-31T01:44:32;6.00;;;2.65;;
80253;SDS011;69563;37.974;23.708;2023-07-31T01:46:58;5.65;;;2.78;;
80253;SDS011;69563;37.974;23.708;2023-07-31T01:49:25;7.47;;;2.50;;
80253;SDS011;69563;37.974;23.708;2023-07-31T01:51:50;5.28;;;2.22;;
80253;SDS011;69563;37.974;23.708;2023-07-31T01:54:16;5.78;;;2.30;;
80253;SDS011;69563;37.974;23.708;2023-07-31T01:56:42;5.55;;;2.50;;
80253;SDS011;69563;37.974;23.708;2023-07-31T01:59:08;4.85;;;2.40;;
80253;SDS011;69563;37.974;23.708;2023-07-31T02:01:33;6.78;;;2.25;;
80253;SDS011;69563;37.974;23.708;2023-07-31T02:03:59;5.50;;;2.42;;
80253;SDS011;69563;37.974;23.708;2023-07-31T02:06:25;4.35;;;2.33;;
80253;SDS011;69563;37.974;23.708;2023-07-31T02:08:50;3.53;;;2.42;;
80253;SDS011;69563;37.974;23.708;2023-07-31T02:11:16;5.20;;;2.38;;
80253;SDS011;69563;37.974;23.708;2023-07-31T02:13:42;5.07;;;2.40;;
80253;SDS011;69563;37.974;23.708;2023-07-31T02:16:07;4.72;;;2.42;;
80253;SDS011;69563;37.974;23.708;2023-07-31T02:18:33;4.00;;;2.38;;
80253;SDS011;69563;37.974;23.708;2023-07-31T02:20:59;5.28;;;2.40;;
80253;SDS011;69563;37.974;23.708;2023-07-31T02:23:24;5.45;;;2.38;;
80253;SDS011;69563;37.974;23.708;2023-07-31T02:25:50;3.28;;;2.25;;
80253;SDS011;69563;37.974;23.708;2023-07-31T02:28:15;4.88;;;2.50;;
80253;SDS011;69563;37.974;23.708;2023-07-31T02:30:43;5.22;;;2.53;;
80253;SDS011;69563;37.974;23.708;2023-07-31T02:33:10;3.72;;;2.28;;
80253;SDS011;69563;37.974;23.708;2023-07-31T02:35:36;4.50;;;2.50;;
80253;SDS011;69563;37.974;23.708;2023-07-31T02:38:02;5.47;;;2.63;;
80253;SDS011;69563;37.974;23.708;2023-07-31T02:40:28;4.05;;;2.70;;
80253;SDS011;69563;37.974;23.708;2023-07-31T02:42:53;6.28;;;2.40;;
80253;SDS011;69563;37.974;23.708;2023-07-31T02:45:19;4.38;;;2.60;;
80253;SDS011;69563;37.974;23.708;2023-07-31T02:47:45;4.40;;;2.50;;
80253;SDS011;69563;37.974;23.708;2023-07-31T02:50:10;5.55;;;2.60;;
80253;SDS011;69563;37.974;23.708;2023-07-31T02:52:36;4.68;;;2.75;;
80253;SDS011;69563;37.974;23.708;2023-07-31T02:55:01;7.13;;;2.80;;
80253;SDS011;69563;37.974;23.708;2023-07-31T02:57:27;7.53;;;2.60;;
80253;SDS011;69563;37.974;23.708;2023-07-31T02:59:53;4.75;;;2.45;;
80253;SDS011;69563;37.974;23.708;2023-07-31T03:02:18;5.68;;;2.45;;
80253;SDS011;69563;37.974;23.708;2023-07-31T03:04:44;5.75;;;2.63;;
80253;SDS011;69563;37.974;23.708;2023-07-31T03:07:10;4.85;;;2.90;;
80253;SDS011;69563;37.974;23.708;2023-07-31T03:09:36;6.53;;;2.70;;
80253;SDS011;69563;37.974;23.708;2023-07-31T03:12:01;4.75;;;2.47;;
80253;SDS011;69563;37.974;23.708;2023-07-31T03:14:28;5.03;;;2.72;;
80253;SDS011;69563;37.974;23.708;2023-07-31T03:16:54;4.93;;;2.60;;
80253;SDS011;69563;37.974;23.708;2023-07-31T03:19:19;5.80;;;2.70;;
80253;SDS011;69563;37.974;23.708;2023-07-31T03:21:45;5.38;;;2.75;;
80253;SDS011;69563;37.974;23.708;2023-07-31T03:24:11;4.60;;;2.40;;
80253;SDS011;69563;37.974;23.708;2023-07-31T03:26:37;5.03;;;2.50;;
80253;SDS011;69563;37.974;23.708;2023-07-31T03:29:06;4.90;;;2.50;;
80253;SDS011;69563;37.974;23.708;2023-07-31T03:31:32;5.65;;;2.40;;
80253;SDS011;69563;37.974;23.708;2023-07-31T03:33:58;5.03;;;2.60;;
80253;SDS011;69563;37.974;23.708;2023-07-31T03:36:23;6.68;;;2.70;;
80253;SDS011;69563;37.974;23.708;2023-07-31T03:38:50;5.18;;;2.33;;
80253;SDS011;69563;37.974;23.708;2023-07-31T03:41:16;5.72;;;2.90;;
80253;SDS011;69563;37.974;23.708;2023-07-31T03:43:42;4.82;;;2.70;;
80253;SDS011;69563;37.974;23.708;2023-07-31T03:46:08;5.60;;;2.80;;
80253;SDS011;69563;37.974;23.708;2023-07-31T03:48:34;4.65;;;2.63;;
80253;SDS011;69563;37.974;23.708;2023-07-31T03:50:59;7.38;;;3.03;;
80253;SDS011;69563;37.974;23.708;2023-07-31T03:53:25;7.28;;;3.00;;
80253;SDS011;69563;37.974;23.708;2023-07-31T03:55:51;5.97;;;2.70;;
80253;SDS011;69563;37.974;23.708;2023-07-31T03:58:16;4.72;;;2.88;;
80253;SDS011;69563;37.974;23.708;2023-07-31T04:00:42;9.88;;;2.65;;
80253;SDS011;69563;37.974;23.708;2023-07-31T04:03:08;7.10;;;3.22;;
80253;SDS011;69563;37.974;23.708;2023-07-31T04:05:33;6.63;;;2.70;;
80253;SDS011;69563;37.974;23.708;2023-07-31T04:08:03;5.53;;;2.85;;
80253;SDS011;69563;37.974;23.708;2023-07-31T04:10:29;5.57;;;2.83;;
80253;SDS011;69563;37.974;23.708;2023-07-31T04:12:56;5.57;;;2.95;;
80253;SDS011;69563;37.974;23.708;2023-07-31T04:15:21;10.00;;;2.85;;
80253;SDS011;69563;37.974;23.708;2023-07-31T04:17:47;9.95;;;3.20;;
80253;SDS011;69563;37.974;23.708;2023-07-31T04:20:13;138.18;;;10.05;;
80253;SDS011;69563;37.974;23.708;2023-07-31T04:22:38;116.30;;;9.07;;
80253;SDS011;69563;37.974;23.708;2023-07-31T04:25:04;71.03;;;7.07;;
80253;SDS011;69563;37.974;23.708;2023-07-31T04:27:30;39.40;;;5.43;;
80253;SDS011;69563;37.974;23.708;2023-07-31T04:29:56;44.33;;;4.95;;
80253;SDS011;69563;37.974;23.708;2023-07-31T04:32:22;45.38;;;5.60;;
80253;SDS011;69563;37.974;23.708;2023-07-31T04:34:47;37.05;;;4.65;;
80253;SDS011;69563;37.974;23.708;2023-07-31T04:37:13;38.72;;;5.15;;
80253;SDS011;69563;37.974;23.708;2023-07-31T04:39:39;36.08;;;4.68;;
80253;SDS011;69563;37.974;23.708;2023-07-31T04:42:05;29.75;;;4.60;;
80253;SDS011;69563;37.974;23.708;2023-07-31T04:44:30;27.60;;;4.63;;
80253;SDS011;69563;37.974;23.708;2023-07-31T04:46:56;25.85;;;4.68;;
80253;SDS011;69563;37.974;23.708;2023-07-31T04:49:22;16.48;;;4.20;;
80253;SDS011;69563;37.974;23.708;2023-07-31T04:51:47;18.55;;;4.18;;
80253;SDS011;69563;37.974;23.708;2023-07-31T04:54:13;17.27;;;3.90;;
80253;SDS011;69563;37.974;23.708;2023-07-31T04:56:40;15.77;;;4.10;;
80253;SDS011;69563;37.974;23.708;2023-07-31T04:59:06;12.63;;;3.70;;
80253;SDS011;69563;37.974;23.708;2023-07-31T05:01:32;21.13;;;4.18;;
80253;SDS011;69563;37.974;23.708;2023-07-31T05:03:57;18.08;;;4.40;;
80253;SDS011;69563;37.974;23.708;2023-07-31T05:06:23;14.02;;;3.65;;
80253;SDS011;69563;37.974;23.708;2023-07-31T05:08:49;14.00;;;4.20;;
80253;SDS011;69563;37.974;23.708;2023-07-31T05:11:15;11.93;;;3.78;;
80253;SDS011;69563;37.974;23.708;2023-07-31T05:13:40;12.07;;;3.88;;
80253;SDS011;69563;37.974;23.708;2023-07-31T05:16:06;17.65;;;3.88;;
80253;SDS011;69563;37.974;23.708;2023-07-31T05:18:31;13.68;;;3.60;;
80253;SDS011;69563;37.974;23.708;2023-07-31T05:20:57;11.90;;;3.50;;
80253;SDS011;69563;37.974;23.708;2023-07-31T05:23:23;10.88;;;3.42;;
80253;SDS011;69563;37.974;23.708;2023-07-31T05:25:49;9.02;;;3.08;;
80253;SDS011;69563;37.974;23.708;2023-07-31T05:28:14;10.75;;;2.70;;
80253;SDS011;69563;37.974;23.708;2023-07-31T05:30:40;10.48;;;2.83;;
80253;SDS011;69563;37.974;23.708;2023-07-31T05:33:06;7.20;;;2.50;;
80253;SDS011;69563;37.974;23.708;2023-07-31T05:35:31;5.93;;;2.17;;
80253;SDS011;69563;37.974;23.708;2023-07-31T05:37:57;7.07;;;2.22;;
80253;SDS011;69563;37.974;23.708;2023-07-31T05:40:23;5.97;;;2.20;;
80253;SDS011;69563;37.974;23.708;2023-07-31T05:42:48;4.20;;;1.98;;
80253;SDS011;69563;37.974;23.708;2023-07-31T05:45:14;7.65;;;2.08;;
80253;SDS011;69563;37.974;23.708;2023-07-31T05:47:40;4.25;;;2.00;;
80253;SDS011;69563;37.974;23.708;2023-07-31T05:50:05;7.55;;;2.42;;
80253;SDS011;69563;37.974;23.708;2023-07-31T05:52:31;3.60;;;1.80;;
80253;SDS011;69563;37.974;23.708;2023-07-31T05:54:57;3.53;;;1.80;;
80253;SDS011;69563;37.974;23.708;2023-07-31T05:57:23;4.80;;;1.70;;
80253;SDS011;69563;37.974;23.708;2023-07-31T05:59:48;2.88;;;1.70;;
80253;SDS011;69563;37.974;23.708;2023-07-31T06:02:14;3.83;;;1.70;;
80253;SDS011;69563;37.974;23.708;2023-07-31T06:04:40;3.53;;;1.45;;
80253;SDS011;69563;37.974;23.708;2023-07-31T06:07:05;3.30;;;1.50;;
80253;SDS011;69563;37.974;23.708;2023-07-31T06:09:31;3.85;;;1.30;;
80253;SDS011;69563;37.974;23.708;2023-07-31T06:11:57;2.38;;;1.42;;
80253;SDS011;69563;37.974;23.708;2023-07-31T06:14:23;3.80;;;1.50;;
80253;SDS011;69563;37.974;23.708;2023-07-31T06:16:48;4.63;;;1.50;;
80253;SDS011;69563;37.974;23.708;2023-07-31T06:19:14;3.97;;;1.50;;
80253;SDS011;69563;37.974;23.708;2023-07-31T06:21:39;5.75;;;1.60;;
80253;SDS011;69563;37.974;23.708;2023-07-31T06:24:07;2.13;;;1.23;;
80253;SDS011;69563;37.974;23.708;2023-07-31T06:26:33;2.95;;;1.50;;
80253;SDS011;69563;37.974;23.708;2023-07-31T06:28:59;3.55;;;1.30;;
80253;SDS011;69563;37.974;23.708;2023-07-31T06:31:24;3.08;;;1.10;;
80253;SDS011;69563;37.974;23.708;2023-07-31T06:33:51;2.63;;;1.50;;
80253;SDS011;69563;37.974;23.708;2023-07-31T06:36:17;2.58;;;1.55;;
80253;SDS011;69563;37.974;23.708;2023-07-31T06:38:43;3.15;;;1.42;;
80253;SDS011;69563;37.974;23.708;2023-07-31T06:41:09;2.38;;;1.30;;
80253;SDS011;69563;37.974;23.708;2023-07-31T06:43:35;2.40;;;1.20;;
80253;SDS011;69563;37.974;23.708;2023-07-31T06:46:05;4.40;;;1.52;;
80253;SDS011;69563;37.974;23.708;2023-07-31T06:48:32;5.40;;;1.50;;
80253;SDS011;69563;37.974;23.708;2023-07-31T06:50:58;4.00;;;1.40;;
80253;SDS011;69563;37.974;23.708;2023-07-31T06:53:24;2.00;;;1.30;;
80253;SDS011;69563;37.974;23.708;2023-07-31T06:55:50;4.13;;;1.50;;
80253;SDS011;69563;37.974;23.708;2023-07-31T06:58:17;4.60;;;1.48;;
80253;SDS011;69563;37.974;23.708;2023-07-31T07:00:43;2.80;;;1.55;;
80253;SDS011;69563;37.974;23.708;2023-07-31T07:03:08;2.38;;;1.30;;
80253;SDS011;69563;37.974;23.708;2023-07-31T07:05:34;3.65;;;1.60;;
80253;SDS011;69563;37.974;23.708;2023-07-31T07:08:00;3.55;;;1.70;;
80253;SDS011;69563;37.974;23.708;2023-07-31T07:10:25;2.80;;;1.40;;
80253;SDS011;69563;37.974;23.708;2023-07-31T07:12:51;4.20;;;1.60;;
80253;SDS011;69563;37.974;23.708;2023-07-31T07:15:17;2.42;;;1.60;;
80253;SDS011;69563;37.974;23.708;2023-07-31T07:17:43;2.80;;;1.50;;
80253;SDS011;69563;37.974;23.708;2023-07-31T07:20:09;2.35;;;1.40;;
80253;SDS011;69563;37.974;23.708;2023-07-31T07:22:35;3.25;;;1.63;;
80253;SDS011;69563;37.974;23.708;2023-07-31T07:25:00;3.88;;;1.65;;
80253;SDS011;69563;37.974;23.708;2023-07-31T07:27:26;4.68;;;1.67;;
80253;SDS011;69563;37.974;23.708;2023-07-31T07:29:52;3.75;;;1.60;;
80253;SDS011;69563;37.974;23.708;2023-07-31T07:32:18;3.95;;;1.70;;
80253;SDS011;69563;37.974;23.708;2023-07-31T07:34:44;3.70;;;1.50;;
80253;SDS011;69563;37.974;23.708;2023-07-31T07:37:10;2.92;;;1.90;;
80253;SDS011;69563;37.974;23.708;2023-07-31T07:39:36;5.00;;;1.70;;
80253;SDS011;69563;37.974;23.708;2023-07-31T07:42:02;3.47;;;1.50;;
80253;SDS011;69563;37.974;23.708;2023-07-31T07:44:28;4.53;;;1.83;;
80253;SDS011;69563;37.974;23.708;2023-07-31T07:46:54;5.03;;;1.60;;
80253;SDS011;69563;37.974;23.708;2023-07-31T07:49:19;3.17;;;1.70;;
80253;SDS011;69563;37.974;23.708;2023-07-31T07:51:47;7.05;;;1.65;;
80253;SDS011;69563;37.974;23.708;2023-07-31T07:54:13;4.45;;;1.70;;
80253;SDS011;69563;37.974;23.708;2023-07-31T07:56:39;3.05;;;1.75;;
80253;SDS011;69563;37.974;23.708;2023-07-31T07:59:05;6.00;;;1.75;;
80253;SDS011;69563;37.974;23.708;2023-07-31T08:01:30;5.35;;;1.77;;
80253;SDS011;69563;37.974;23.708;2023-07-31T08:03:56;3.65;;;1.55;;
80253;SDS011;69563;37.974;23.708;2023-07-31T08:06:23;4.65;;;1.60;;
80253;SDS011;69563;37.974;23.708;2023-07-31T08:08:49;4.95;;;1.63;;
80253;SDS011;69563;37.974;23.708;2023-07-31T08:11:15;4.53;;;1.60;;
80253;SDS011;69563;37.974;23.708;2023-07-31T08:13:40;4.63;;;1.85;;
80253;SDS011;69563;37.974;23.708;2023-07-31T08:16:06;5.57;;;1.60;;
80253;SDS011;69563;37.974;23.708;2023-07-31T08:18:32;2.85;;;1.70;;
80253;SDS011;69563;37.974;23.708;2023-07-31T08:20:58;3.83;;;1.90;;
80253;SDS011;69563;37.974;23.708;2023-07-31T08:23:24;3.80;;;1.92;;
80253;SDS011;69563;37.974;23.708;2023-07-31T08:25:49;3.33;;;1.90;;
80253;SDS011;69563;37.974;23.708;2023-07-31T08:28:15;3.50;;;2.00;;
80253;SDS011;69563;37.974;23.708;2023-07-31T08:30:41;3.55;;;1.70;;
80253;SDS011;69563;37.974;23.708;2023-07-31T08:33:07;3.05;;;1.80;;
80253;SDS011;69563;37.974;23.708;2023-07-31T08:35:33;3.53;;;2.10;;
80253;SDS011;69563;37.974;23.708;2023-07-31T08:37:59;3.50;;;1.80;;
80253;SDS011;69563;37.974;23.708;2023-07-31T08:40:24;3.13;;;1.80;;
80253;SDS011;69563;37.974;23.708;2023-07-31T08:42:52;3.35;;;1.70;;
80253;SDS011;69563;37.974;23.708;2023-07-31T08:45:19;3.42;;;1.70;;
80253;SDS011;69563;37.974;23.708;2023-07-31T08:47:46;2.70;;;1.52;;
80253;SDS011;69563;37.974;23.708;2023-07-31T08:50:13;3.78;;;1.92;;
80253;SDS011;69563;37.974;23.708;2023-07-31T08:52:42;7.78;;;2.03;;
80253;SDS011;69563;37.974;23.708;2023-07-31T08:55:08;3.47;;;1.80;;
80253;SDS011;69563;37.974;23.708;2023-07-31T08:57:35;3.63;;;2.03;;
80253;SDS011;69563;37.974;23.708;2023-07-31T09:00:02;3.42;;;2.00;;
80253;SDS011;69563;37.974;23.708;2023-07-31T09:02:48;3.63;;;1.92;;
80253;SDS011;69563;37.974;23.708;2023-07-31T09:05:33;4.03;;;1.95;;
80253;SDS011;69563;37.974;23.708;2023-07-31T09:08:01;3.00;;;2.00;;
80253;SDS011;69563;37.974;23.708;2023-07-31T09:10:29;4.57;;;2.20;;
80253;SDS011;69563;37.974;23.708;2023-07-31T09:12:54;4.13;;;1.98;;
80253;SDS011;69563;37.974;23.708;2023-07-31T09:15:21;3.15;;;1.98;;
80253;SDS011;69563;37.974;23.708;2023-07-31T09:17:48;2.55;;;1.95;;
80253;SDS011;69563;37.974;23.708;2023-07-31T09:20:25;5.20;;;2.42;;
80253;SDS011;69563;37.974;23.708;2023-07-31T09:22:50;3.95;;;2.20;;
80253;SDS011;69563;37.974;23.708;2023-07-31T09:25:21;4.05;;;2.00;;
80253;SDS011;69563;37.974;23.708;2023-07-31T09:28:01;3.72;;;2.00;;
80253;SDS011;69563;37.974;23.708;2023-07-31T09:30:28;4.13;;;2.00;;
80253;SDS011;69563;37.974;23.708;2023-07-31T09:33:01;2.88;;;1.90;;
80253;SDS011;69563;37.974;23.708;2023-07-31T09:35:34;2.88;;;1.90;;
80253;SDS011;69563;37.974;23.708;2023-07-31T09:38:05;3.22;;;1.92;;
80253;SDS011;69563;37.974;23.708;2023-07-31T09:40:35;2.53;;;1.70;;
80253;SDS011;69563;37.974;23.708;2023-07-31T09:43:06;3.83;;;1.90;;
80253;SDS011;69563;37.974;23.708;2023-07-31T09:45:42;3.30;;;1.90;;
80253;SDS011;69563;37.974;23.708;2023-07-31T09:48:16;2.55;;;1.88;;
80253;SDS011;69563;37.974;23.708;2023-07-31T09:50:43;2.67;;;1.70;;
80253;SDS011;69563;37.974;23.708;2023-07-31T09:53:10;3.65;;;1.90;;
80253;SDS011;69563;37.974;23.708;2023-07-31T09:55:36;4.65;;;1.90;;
80253;SDS011;69563;37.974;23.708;2023-07-31T09:58:06;2.20;;;1.60;;
80253;SDS011;69563;37.974;23.708;2023-07-31T10:00:33;2.83;;;2.03;;
80253;SDS011;69563;37.974;23.708;2023-07-31T10:03:00;4.00;;;1.90;;
80253;SDS011;69563;37.974;23.708;2023-07-31T10:05:39;2.90;;;2.00;;
80253;SDS011;69563;37.974;23.708;2023-07-31T10:08:09;2.63;;;1.77;;
80253;SDS011;69563;37.974;23.708;2023-07-31T10:10:36;3.22;;;1.95;;
80253;SDS011;69563;37.974;23.708;2023-07-31T10:13:06;3.65;;;2.60;;
80253;SDS011;69563;37.974;23.708;2023-07-31T10:15:32;3.55;;;2.22;;
80253;SDS011;69563;37.974;23.708;2023-07-31T10:17:59;3.35;;;2.30;;
80253;SDS011;69563;37.974;23.708;2023-07-31T10:20:25;9.13;;;2.80;;
80253;SDS011;69563;37.974;23.708;2023-07-31T10:22:52;3.47;;;2.65;;
80253;SDS011;69563;37.974;23.708;2023-07-31T10:25:20;3.33;;;2.50;;
80253;SDS011;69563;37.974;23.708;2023-07-31T10:27:47;3.97;;;2.40;;
80253;SDS011;69563;37.974;23.708;2023-07-31T10:30:17;4.07;;;2.35;;
80253;SDS011;69563;37.974;23.708;2023-07-31T10:32:47;3.20;;;2.40;;
80253;SDS011;69563;37.974;23.708;2023-07-31T10:35:15;3.70;;;2.47;;
80253;SDS011;69563;37.974;23.708;2023-07-31T10:37:42;3.80;;;2.50;;
80253;SDS011;69563;37.974;23.708;2023-07-31T10:42:46;4.85;;;2.30;;
80253;SDS011;69563;37.974;23.708;2023-07-31T10:45:33;4.28;;;2.38;;
80253;SDS011;69563;37.974;23.708;2023-07-31T10:48:02;3.22;;;2.25;;
80253;SDS011;69563;37.974;23.708;2023-07-31T10:50:33;6.22;;;2.40;;
80253;SDS011;69563;37.974;23.708;2023-07-31T10:53:02;3.22;;;2.20;;
80253;SDS011;69563;37.974;23.708;2023-07-31T10:55:32;4.65;;;2.40;;
80253;SDS011;69563;37.974;23.708;2023-07-31T10:58:13;3.40;;;1.98;;
80253;SDS011;69563;37.974;23.708;2023-07-31T11:00:44;4.20;;;2.00;;
80253;SDS011;69563;37.974;23.708;2023-07-31T11:03:12;2.75;;;2.00;;
80253;SDS011;69563;37.974;23.708;2023-07-31T11:05:45;3.08;;;2.38;;
80253;SDS011;69563;37.974;23.708;2023-07-31T11:08:11;3.30;;;2.10;;
80253;SDS011;69563;37.974;23.708;2023-07-31T11:10:43;3.25;;;2.00;;
80253;SDS011;69563;37.974;23.708;2023-07-31T11:13:09;2.42;;;1.83;;
80253;SDS011;69563;37.974;23.708;2023-07-31T11:15:35;3.05;;;2.05;;
80253;SDS011;69563;37.974;23.708;2023-07-31T11:18:01;3.13;;;2.30;;
80253;SDS011;69563;37.974;23.708;2023-07-31T11:20:33;4.65;;;2.10;;
80253;SDS011;69563;37.974;23.708;2023-07-31T11:23:03;3.75;;;2.33;;
80253;SDS011;69563;37.974;23.708;2023-07-31T11:27:58;3.75;;;2.20;;
80253;SDS011;69563;37.974;23.708;2023-07-31T11:30:30;5.53;;;2.20;;
80253;SDS011;69563;37.974;23.708;2023-07-31T11:32:56;4.70;;;2.30;;
80253;SDS011;69563;37.974;23.708;2023-07-31T11:35:22;5.38;;;2.25;;
80253;SDS011;69563;37.974;23.708;2023-07-31T11:37:48;3.50;;;2.30;;
80253;SDS011;69563;37.974;23.708;2023-07-31T11:40:14;2.95;;;2.15;;
80253;SDS011;69563;37.974;23.708;2023-07-31T11:42:40;3.03;;;2.17;;
80253;SDS011;69563;37.974;23.708;2023-07-31T11:45:09;2.70;;;2.00;;
80253;SDS011;69563;37.974;23.708;2023-07-31T11:47:36;3.28;;;2.10;;
80253;SDS011;69563;37.974;23.708;2023-07-31T11:50:06;2.72;;;2.13;;
80253;SDS011;69563;37.974;23.708;2023-07-31T11:52:40;9.25;;;2.40;;
80253;SDS011;69563;37.974;23.708;2023-07-31T11:55:09;4.55;;;2.33;;
80253;SDS011;69563;37.974;23.708;2023-07-31T11:57:36;4.40;;;2.03;;
80253;SDS011;69563;37.974;23.708;2023-07-31T12:00:04;3.50;;;2.17;;
80253;SDS011;69563;37.974;23.708;2023-07-31T12:02:33;2.75;;;1.95;;
80253;SDS011;69563;37.974;23.708;2023-07-31T12:04:59;3.53;;;1.90;;
80253;SDS011;69563;37.974;23.708;2023-07-31T12:07:25;2.70;;;1.70;;
80253;SDS011;69563;37.974;23.708;2023-07-31T12:09:51;3.47;;;1.80;;
80253;SDS011;69563;37.974;23.708;2023-07-31T12:12:21;3.30;;;1.90;;
80253;SDS011;69563;37.974;23.708;2023-07-31T12:14:48;4.72;;;2.00;;
80253;SDS011;69563;37.974;23.708;2023-07-31T12:17:18;5.25;;;1.98;;
80253;SDS011;69563;37.974;23.708;2023-07-31T12:19:45;3.55;;;1.90;;
80253;SDS011;69563;37.974;23.708;2023-07-31T12:22:13;4.70;;;1.70;;
80253;SDS011;69563;37.974;23.708;2023-07-31T12:24:41;4.28;;;2.03;;
80253;SDS011;69563;37.974;23.708;2023-07-31T12:27:15;3.13;;;1.85;;
80253;SDS011;69563;37.974;23.708;2023-07-31T12:29:43;6.65;;;2.10;;
80253;SDS011;69563;37.974;23.708;2023-07-31T12:32:22;4.82;;;1.90;;
80253;SDS011;69563;37.974;23.708;2023-07-31T12:34:49;5.65;;;1.70;;
80253;SDS011;69563;37.974;23.708;2023-07-31T12:37:15;4.95;;;1.90;;
80253;SDS011;69563;37.974;23.708;2023-07-31T12:39:41;4.57;;;1.73;;
80253;SDS011;69563;37.974;23.708;2023-07-31T12:42:06;3.90;;;1.83;;
80253;SDS011;69563;37.974;23.708;2023-07-31T12:44:32;5.75;;;1.88;;
80253;SDS011;69563;37.974;23.708;2023-07-31T12:46:58;4.80;;;1.70;;
80253;SDS011;69563;37.974;23.708;2023-07-31T12:49:23;3.50;;;1.80;;
80253;SDS011;69563;37.974;23.708;2023-07-31T12:51:49;4.28;;;2.08;;
80253;SDS011;69563;37.974;23.708;2023-07-31T12:54:14;3.35;;;1.98;;
80253;SDS011;69563;37.974;23.708;2023-07-31T12:56:40;5.20;;;1.80;;
80253;SDS011;69563;37.974;23.708;2023-07-31T12:59:06;6.25;;;2.10;;
80253;SDS011;69563;37.974;23.708;2023-07-31T13:01:32;4.38;;;1.70;;
80253;SDS011;69563;37.974;23.708;2023-07-31T13:03:57;3.47;;;1.80;;
80253;SDS011;69563;37.974;23.708;2023-07-31T13:06:24;4.57;;;1.83;;
80253;SDS011;69563;37.974;23.708;2023-07-31T13:08:51;4.97;;;2.10;;
80253;SDS011;69563;37.974;23.708;2023-07-31T13:11:16;5.03;;;2.03;;
80253;SDS011;69563;37.974;23.708;2023-07-31T13:13:42;6.07;;;1.90;;
80253;SDS011;69563;37.974;23.708;2023-07-31T13:16:08;2.78;;;1.70;;
80253;SDS011;69563;37.974;23.708;2023-07-31T13:18:34;4.22;;;2.00;;
80253;SDS011;69563;37.974;23.708;2023-07-31T13:20:59;4.72;;;1.90;;
80253;SDS011;69563;37.974;23.708;2023-07-31T13:23:25;4.15;;;1.83;;
80253;SDS011;69563;37.974;23.708;2023-07-31T13:25:51;4.10;;;1.90;;
80253;SDS011;69563;37.974;23.708;2023-07-31T13:28:16;8.48;;;1.88;;
80253;SDS011;69563;37.974;23.708;2023-07-31T13:30:42;4.47;;;1.80;;
80253;SDS011;69563;37.974;23.708;2023-07-31T13:33:08;5.13;;;1.77;;
80253;SDS011;69563;37.974;23.708;2023-07-31T13:35:34;6.57;;;1.80;;
80253;SDS011;69563;37.974;23.708;2023-07-31T13:37:59;4.65;;;1.90;;
80253;SDS011;69563;37.974;23.708;2023-07-31T13:40:25;5.85;;;1.92;;
80253;SDS011;69563;37.974;23.708;2023-07-31T13:42:51;6.55;;;1.83;;
80253;SDS011;69563;37.974;23.708;2023-07-31T13:45:18;6.50;;;1.90;;
80253;SDS011;69563;37.974;23.708;2023-07-31T13:47:44;4.07;;;2.10;;
80253;SDS011;69563;37.974;23.708;2023-07-31T13:50:09;6.10;;;2.22;;
80253;SDS011;69563;37.974;23.708;2023-07-31T13:52:35;5.43;;;1.88;;
80253;SDS011;69563;37.974;23.708;2023-07-31T13:55:01;4.35;;;2.10;;
80253;SDS011;69563;37.974;23.708;2023-07-31T13:57:27;5.03;;;1.98;;
80253;SDS011;69563;37.974;23.708;2023-07-31T13:59:53;6.18;;;1.80;;
80253;SDS011;69563;37.974;23.708;2023-07-31T14:02:19;5.75;;;2.00;;
80253;SDS011;69563;37.974;23.708;2023-07-31T14:04:44;5.93;;;1.92;;
80253;SDS011;69563;37.974;23.708;2023-07-31T14:07:10;4.10;;;1.98;;
80253;SDS011;69563;37.974;23.708;2023-07-31T14:09:36;5.78;;;2.00;;
80253;SDS011;69563;37.974;23.708;2023-07-31T14:12:01;4.43;;;2.00;;
80253;SDS011;69563;37.974;23.708;2023-07-31T14:14:27;5.63;;;2.33;;
80253;SDS011;69563;37.974;23.708;2023-07-31T14:16:53;4.72;;;1.92;;
80253;SDS011;69563;37.974;23.708;2023-07-31T14:19:19;4.40;;;1.95;;
80253;SDS011;69563;37.974;23.708;2023-07-31T14:21:45;6.40;;;2.00;;
80253;SDS011;69563;37.974;23.708;2023-07-31T14:24:11;8.00;;;2.10;;
80253;SDS011;69563;37.974;23.708;2023-07-31T14:26:36;4.70;;;2.08;;
80253;SDS011;69563;37.974;23.708;2023-07-31T14:29:02;5.80;;;2.17;;
80253;SDS011;69563;37.974;23.708;2023-07-31T14:31:28;5.60;;;2.00;;
80253;SDS011;69563;37.974;23.708;2023-07-31T14:33:53;5.97;;;2.40;;
80253;SDS011;69563;37.974;23.708;2023-07-31T14:36:19;6.25;;;2.17;;
80253;SDS011;69563;37.974;23.708;2023-07-31T14:38:45;4.28;;;2.13;;
80253;SDS011;69563;37.974;23.708;2023-07-31T14:41:10;5.15;;;2.20;;